PWSweather.com
Personal Weather Stations
Station Observations
SUBOTICARS
SuboticaYU

SuboticaYU

Lat: 46.1296717, Lon: 19.641551

Elevation: 361

Station Type: Nexus

http://sumeteo.info

Latest ConditionsUpdated 7:00:01 AM GMT+01:01 Sunday, Feb 24, 2019
Currently Today's Max Today's Min Today's Average
Temperature 19.0°F-7.2°C 22.7°F-5.2°C 18.1°F-7.7°C 19.9°F-6.7°C
Dew Point 7.0°F-13.9°C 7.0°F-13.9°C 5.2°F-14.9°C 6.0°F-14.4°C
Winds 3.5 mph NNW5.6 kmh NNW 3.5 mph -5.6 kmh - - 2.8 mph 4.5 kmh
Wind Gusts 3.5 mph5.6 kmh 4.6 mph7.4 kmh - -
Humidity 59% 59% 49% 54%
Pressure 30.33 in1027.1 mb 30.36 in1028.1 mb 30.32 in1026.8 mb -
Hour Temp Dew Point Humidity Winds Wind Gusts Pressure Precip Precip Rate Daily Precip Total
07:00 AM 19.0°F-7.2°C 7.0°F-13.9°C 59% 3.5 mph NNW5.6 kmh NNW 3.5 mph5.6 kmh 30.33 in1027.1 mb - 0.00 in0.0 mm 0.00 in0.0 mm
06:55 AM 18.9°F-7.3°C 6.9°F-13.9°C 59% 2.3 mph NNE3.7 kmh NNE 2.3 mph3.7 kmh 30.34 in1027.4 mb - 0.00 in0.0 mm 0.00 in0.0 mm
06:50 AM 18.8°F-7.3°C 6.8°F-14.0°C 59% 3.5 mph NNW5.6 kmh NNW 4.6 mph7.4 kmh 30.34 in1027.4 mb - 0.00 in0.0 mm 0.00 in0.0 mm
06:45 AM 18.6°F-7.4°C 6.7°F-14.1°C 59% 2.3 mph NNW3.7 kmh NNW 3.5 mph5.6 kmh 30.34 in1027.4 mb - 0.00 in0.0 mm 0.00 in0.0 mm
06:40 AM 18.5°F-7.5°C 6.5°F-14.2°C 59% 3.5 mph NNE5.6 kmh NNE 3.5 mph5.6 kmh 30.34 in1027.4 mb - 0.00 in0.0 mm 0.00 in0.0 mm
06:35 AM 18.3°F-7.6°C 6.0°F-14.4°C 58% 2.3 mph NNE3.7 kmh NNE 3.5 mph5.6 kmh 30.34 in1027.4 mb - 0.00 in0.0 mm 0.00 in0.0 mm
06:30 AM 18.3°F-7.6°C 6.0°F-14.4°C 58% 2.3 mph NNW3.7 kmh NNW 2.3 mph3.7 kmh 30.34 in1027.4 mb - 0.00 in0.0 mm 0.00 in0.0 mm
06:25 AM 18.1°F-7.7°C 5.8°F-14.6°C 58% 3.5 mph N5.6 kmh N 3.5 mph5.6 kmh 30.33 in1027.1 mb - 0.00 in0.0 mm 0.00 in0.0 mm
06:20 AM 18.1°F-7.7°C 5.8°F-14.6°C 58% 3.5 mph N5.6 kmh N 3.5 mph5.6 kmh 30.33 in1027.1 mb - 0.00 in0.0 mm 0.00 in0.0 mm
06:15 AM 18.3°F-7.6°C 6.3°F-14.3°C 59% 2.3 mph 3.7 kmh 2.3 mph3.7 kmh 30.33 in1027.1 mb - 0.00 in0.0 mm 0.00 in0.0 mm
06:10 AM 18.1°F-7.7°C 5.8°F-14.6°C 58% 3.5 mph NNW5.6 kmh NNW 3.5 mph5.6 kmh 30.33 in1027.1 mb - 0.00 in0.0 mm 0.00 in0.0 mm
06:00 AM 18.3°F-7.6°C 6.0°F-14.4°C 58% 1.2 mph N1.9 kmh N 2.3 mph3.7 kmh 30.33 in1027.1 mb - 0.00 in0.0 mm 0.00 in0.0 mm
05:55 AM 18.3°F-7.6°C 6.0°F-14.4°C 58% 3.5 mph NNW5.6 kmh NNW 3.5 mph5.6 kmh 30.32 in1026.8 mb - 0.00 in0.0 mm 0.00 in0.0 mm
05:50 AM 18.5°F-7.5°C 5.8°F-14.6°C 57% 2.3 mph N3.7 kmh N 2.3 mph3.7 kmh 30.32 in1026.8 mb - 0.00 in0.0 mm 0.00 in0.0 mm
05:45 AM 18.5°F-7.5°C 5.8°F-14.6°C 57% 2.3 mph N3.7 kmh N 2.3 mph3.7 kmh 30.32 in1026.8 mb - 0.00 in0.0 mm 0.00 in0.0 mm
05:40 AM 18.7°F-7.4°C 6.3°F-14.3°C 58% 2.3 mph N3.7 kmh N 3.5 mph5.6 kmh 30.34 in1027.4 mb - 0.00 in0.0 mm 0.00 in0.0 mm
05:35 AM 18.5°F-7.5°C 5.8°F-14.6°C 57% 2.3 mph NNE3.7 kmh NNE 3.5 mph5.6 kmh 30.34 in1027.4 mb - 0.00 in0.0 mm 0.00 in0.0 mm
05:30 AM 18.7°F-7.4°C 6.3°F-14.3°C 58% 3.5 mph NNE5.6 kmh NNE 3.5 mph5.6 kmh 30.34 in1027.4 mb - 0.00 in0.0 mm 0.00 in0.0 mm
05:25 AM 18.7°F-7.4°C 6.3°F-14.3°C 58% 3.5 mph NNW5.6 kmh NNW 3.5 mph5.6 kmh 30.34 in1027.4 mb - 0.00 in0.0 mm 0.00 in0.0 mm
05:20 AM 18.7°F-7.4°C 6.3°F-14.3°C 58% 3.5 mph N5.6 kmh N 3.5 mph5.6 kmh 30.34 in1027.4 mb - 0.00 in0.0 mm 0.00 in0.0 mm
05:15 AM 18.7°F-7.4°C 6.0°F-14.4°C 57% 2.3 mph NNE3.7 kmh NNE 3.5 mph5.6 kmh 30.34 in1027.4 mb - 0.00 in0.0 mm 0.00 in0.0 mm
05:10 AM 18.7°F-7.4°C 6.0°F-14.4°C 57% 3.5 mph NNW5.6 kmh NNW 3.5 mph5.6 kmh 30.34 in1027.4 mb - 0.00 in0.0 mm 0.00 in0.0 mm
05:00 AM 18.7°F-7.4°C 6.0°F-14.4°C 57% 3.5 mph N5.6 kmh N 3.5 mph5.6 kmh 30.34 in1027.4 mb - 0.00 in0.0 mm 0.00 in0.0 mm
04:55 AM 18.7°F-7.4°C 6.0°F-14.4°C 57% 2.3 mph N3.7 kmh N 3.5 mph5.6 kmh 30.34 in1027.4 mb - 0.00 in0.0 mm 0.00 in0.0 mm
04:50 AM 18.7°F-7.4°C 6.0°F-14.4°C 57% 3.5 mph NNW5.6 kmh NNW 3.5 mph5.6 kmh 30.34 in1027.4 mb - 0.00 in0.0 mm 0.00 in0.0 mm
04:45 AM 18.9°F-7.3°C 5.7°F-14.6°C 56% 3.5 mph NNE5.6 kmh NNE 3.5 mph5.6 kmh 30.34 in1027.4 mb - 0.00 in0.0 mm 0.00 in0.0 mm
04:40 AM 19.0°F-7.2°C 6.3°F-14.3°C 57% 3.5 mph NNW5.6 kmh NNW 3.5 mph5.6 kmh 30.34 in1027.4 mb - 0.00 in0.0 mm 0.00 in0.0 mm
04:35 AM 19.0°F-7.2°C 6.3°F-14.3°C 57% 3.5 mph NNW5.6 kmh NNW 3.5 mph5.6 kmh 30.34 in1027.4 mb - 0.00 in0.0 mm 0.00 in0.0 mm
04:30 AM 19.2°F-7.1°C 6.1°F-14.4°C 56% 3.5 mph NNE5.6 kmh NNE 3.5 mph5.6 kmh 30.34 in1027.4 mb - 0.00 in0.0 mm 0.00 in0.0 mm
04:25 AM 19.0°F-7.2°C 5.9°F-14.5°C 56% 3.5 mph 5.6 kmh 3.5 mph5.6 kmh 30.34 in1027.4 mb - 0.00 in0.0 mm 0.00 in0.0 mm
04:20 AM 19.0°F-7.2°C 5.9°F-14.5°C 56% 3.5 mph NNW5.6 kmh NNW 3.5 mph5.6 kmh 30.34 in1027.4 mb - 0.00 in0.0 mm 0.00 in0.0 mm
04:15 AM 19.0°F-7.2°C 5.5°F-14.7°C 55% 2.3 mph NNW3.7 kmh NNW 2.3 mph3.7 kmh 30.34 in1027.4 mb - 0.00 in0.0 mm 0.00 in0.0 mm
04:10 AM 19.2°F-7.1°C 5.7°F-14.6°C 55% 3.5 mph 5.6 kmh 3.5 mph5.6 kmh 30.34 in1027.4 mb - 0.00 in0.0 mm 0.00 in0.0 mm
04:00 AM 19.4°F-7.0°C 5.8°F-14.6°C 55% 2.3 mph NNE3.7 kmh NNE 3.5 mph5.6 kmh 30.34 in1027.4 mb - 0.00 in0.0 mm 0.00 in0.0 mm
03:55 AM 19.4°F-7.0°C 5.8°F-14.6°C 55% 3.5 mph NNW5.6 kmh NNW 3.5 mph5.6 kmh 30.33 in1027.1 mb - 0.00 in0.0 mm 0.00 in0.0 mm
03:50 AM 19.4°F-7.0°C 5.4°F-14.8°C 54% 2.3 mph NNE3.7 kmh NNE 3.5 mph5.6 kmh 30.33 in1027.1 mb - 0.00 in0.0 mm 0.00 in0.0 mm
03:45 AM 19.6°F-6.9°C 5.6°F-14.7°C 54% 2.3 mph N3.7 kmh N 3.5 mph5.6 kmh 30.33 in1027.1 mb - 0.00 in0.0 mm 0.00 in0.0 mm
03:40 AM 19.6°F-6.9°C 5.6°F-14.7°C 54% 3.5 mph NNE5.6 kmh NNE 3.5 mph5.6 kmh 30.33 in1027.1 mb - 0.00 in0.0 mm 0.00 in0.0 mm
03:35 AM 19.6°F-6.9°C 5.6°F-14.7°C 54% 2.3 mph N3.7 kmh N 3.5 mph5.6 kmh 30.33 in1027.1 mb - 0.00 in0.0 mm 0.00 in0.0 mm
03:30 AM 19.6°F-6.9°C 5.2°F-14.9°C 53% 2.3 mph NNW3.7 kmh NNW 3.5 mph5.6 kmh 30.33 in1027.1 mb - 0.00 in0.0 mm 0.00 in0.0 mm
03:25 AM 19.7°F-6.8°C 5.3°F-14.8°C 53% 1.2 mph NNW1.9 kmh NNW 1.2 mph1.9 kmh 30.34 in1027.4 mb - 0.00 in0.0 mm 0.00 in0.0 mm
03:20 AM 19.9°F-6.7°C 5.5°F-14.7°C 53% 2.3 mph NNW3.7 kmh NNW 3.5 mph5.6 kmh 30.34 in1027.4 mb - 0.00 in0.0 mm 0.00 in0.0 mm
03:15 AM 20.1°F-6.6°C 5.7°F-14.6°C 53% 2.3 mph NNW3.7 kmh NNW 3.5 mph5.6 kmh 30.34 in1027.4 mb - 0.00 in0.0 mm 0.00 in0.0 mm
03:10 AM 20.1°F-6.6°C 5.7°F-14.6°C 53% 2.3 mph N3.7 kmh N 3.5 mph5.6 kmh 30.34 in1027.4 mb - 0.00 in0.0 mm 0.00 in0.0 mm
03:00 AM 20.3°F-6.5°C 5.9°F-14.5°C 53% 3.5 mph 5.6 kmh 4.6 mph7.4 kmh 30.34 in1027.4 mb - 0.00 in0.0 mm 0.00 in0.0 mm
02:55 AM 20.1°F-6.6°C 5.7°F-14.6°C 53% 3.5 mph NNW5.6 kmh NNW 3.5 mph5.6 kmh 30.34 in1027.4 mb - 0.00 in0.0 mm 0.00 in0.0 mm
02:50 AM 20.2°F-6.6°C 5.7°F-14.6°C 53% 2.3 mph NNW3.7 kmh NNW 2.3 mph3.7 kmh 30.34 in1027.4 mb - 0.00 in0.0 mm 0.00 in0.0 mm
02:45 AM 20.3°F-6.5°C 5.5°F-14.7°C 52% 2.3 mph NNW3.7 kmh NNW 3.5 mph5.6 kmh 30.34 in1027.4 mb - 0.00 in0.0 mm 0.00 in0.0 mm
02:40 AM 20.5°F-6.4°C 5.6°F-14.7°C 52% 2.3 mph NNE3.7 kmh NNE 2.3 mph3.7 kmh 30.34 in1027.4 mb - 0.00 in0.0 mm 0.00 in0.0 mm
02:35 AM 20.5°F-6.4°C 5.6°F-14.7°C 52% 3.5 mph NE5.6 kmh NE 3.5 mph5.6 kmh 30.34 in1027.4 mb - 0.00 in0.0 mm 0.00 in0.0 mm
02:30 AM 20.6°F-6.3°C 5.7°F-14.6°C 52% 3.5 mph NNE5.6 kmh NNE 3.5 mph5.6 kmh 30.34 in1027.4 mb - 0.00 in0.0 mm 0.00 in0.0 mm
02:25 AM 20.7°F-6.3°C 6.2°F-14.3°C 53% 3.5 mph NNE5.6 kmh NNE 3.5 mph5.6 kmh 30.34 in1027.4 mb - 0.00 in0.0 mm 0.00 in0.0 mm
02:20 AM 20.8°F-6.2°C 6.0°F-14.4°C 52% 2.3 mph NNE3.7 kmh NNE 3.5 mph5.6 kmh 30.34 in1027.4 mb - 0.00 in0.0 mm 0.00 in0.0 mm
02:15 AM 20.8°F-6.2°C 6.4°F-14.2°C 53% 2.3 mph NE3.7 kmh NE 3.5 mph5.6 kmh 30.34 in1027.4 mb - 0.00 in0.0 mm 0.00 in0.0 mm
02:10 AM 21.0°F-6.1°C 6.1°F-14.4°C 52% 3.5 mph NNE5.6 kmh NNE 3.5 mph5.6 kmh 30.34 in1027.4 mb - 0.00 in0.0 mm 0.00 in0.0 mm
02:00 AM 21.0°F-6.1°C 6.1°F-14.4°C 52% 2.3 mph NNE3.7 kmh NNE 3.5 mph5.6 kmh 30.34 in1027.4 mb - 0.00 in0.0 mm 0.00 in0.0 mm
01:55 AM 21.2°F-6.0°C 6.3°F-14.3°C 52% 2.3 mph N3.7 kmh N 2.3 mph3.7 kmh 30.36 in1028.1 mb - 0.00 in0.0 mm 0.00 in0.0 mm
01:50 AM 21.2°F-6.0°C 6.3°F-14.3°C 52% 3.5 mph NE5.6 kmh NE 3.5 mph5.6 kmh 30.36 in1028.1 mb - 0.00 in0.0 mm 0.00 in0.0 mm
01:45 AM 21.2°F-6.0°C 6.3°F-14.3°C 52% 3.5 mph NNE5.6 kmh NNE 3.5 mph5.6 kmh 30.36 in1028.1 mb - 0.00 in0.0 mm 0.00 in0.0 mm
01:40 AM 21.4°F-5.9°C 6.5°F-14.2°C 52% 2.3 mph N3.7 kmh N 3.5 mph5.6 kmh 30.36 in1028.1 mb - 0.00 in0.0 mm 0.00 in0.0 mm
01:35 AM 21.4°F-5.9°C 6.5°F-14.2°C 52% 2.3 mph NNW3.7 kmh NNW 3.5 mph5.6 kmh 30.36 in1028.1 mb - 0.00 in0.0 mm 0.00 in0.0 mm
01:30 AM 21.4°F-5.9°C 6.5°F-14.2°C 52% 3.5 mph NNE5.6 kmh NNE 3.5 mph5.6 kmh 30.36 in1028.1 mb - 0.00 in0.0 mm 0.00 in0.0 mm
01:25 AM 21.4°F-5.9°C 6.5°F-14.2°C 52% 3.5 mph NNE5.6 kmh NNE 3.5 mph5.6 kmh 30.36 in1028.1 mb - 0.00 in0.0 mm 0.00 in0.0 mm
01:20 AM 21.4°F-5.9°C 6.5°F-14.2°C 52% 3.5 mph NE5.6 kmh NE 3.5 mph5.6 kmh 30.36 in1028.1 mb - 0.00 in0.0 mm 0.00 in0.0 mm
01:15 AM 21.6°F-5.8°C 6.6°F-14.1°C 52% 3.5 mph NNE5.6 kmh NNE 3.5 mph5.6 kmh 30.36 in1028.1 mb - 0.00 in0.0 mm 0.00 in0.0 mm
01:10 AM 21.4°F-5.9°C 6.0°F-14.4°C 51% 3.5 mph NNE5.6 kmh NNE 4.6 mph7.4 kmh 30.35 in1027.8 mb - 0.00 in0.0 mm 0.00 in0.0 mm
01:00 AM 21.4°F-5.9°C 5.6°F-14.7°C 50% 2.3 mph NNE3.7 kmh NNE 2.3 mph3.7 kmh 30.35 in1027.8 mb - 0.00 in0.0 mm 0.00 in0.0 mm
12:55 AM 21.4°F-5.9°C 5.6°F-14.7°C 50% 2.3 mph NNE3.7 kmh NNE 3.5 mph5.6 kmh 30.36 in1028.1 mb - 0.00 in0.0 mm 0.00 in0.0 mm
12:50 AM 21.4°F-5.9°C 5.2°F-14.9°C 49% 1.2 mph NNW1.9 kmh NNW 2.3 mph3.7 kmh 30.36 in1028.1 mb - 0.00 in0.0 mm 0.00 in0.0 mm
12:45 AM 21.6°F-5.8°C 5.8°F-14.6°C 50% 2.3 mph NNW3.7 kmh NNW 2.3 mph3.7 kmh 30.36 in1028.1 mb - 0.00 in0.0 mm 0.00 in0.0 mm
12:40 AM 21.7°F-5.7°C 5.9°F-14.5°C 50% 2.3 mph NNW3.7 kmh NNW 3.5 mph5.6 kmh 30.36 in1028.1 mb - 0.00 in0.0 mm 0.00 in0.0 mm
12:35 AM 21.7°F-5.7°C 5.9°F-14.5°C 50% 3.5 mph NNW5.6 kmh NNW 3.5 mph5.6 kmh 30.36 in1028.1 mb - 0.00 in0.0 mm 0.00 in0.0 mm
12:30 AM 21.9°F-5.6°C 6.0°F-14.4°C 50% 2.3 mph NNW3.7 kmh NNW 2.3 mph3.7 kmh 30.36 in1028.1 mb - 0.00 in0.0 mm 0.00 in0.0 mm
12:25 AM 22.0°F-5.6°C 5.7°F-14.6°C 49% 2.3 mph NNW3.7 kmh NNW 3.5 mph5.6 kmh 30.35 in1027.8 mb - 0.00 in0.0 mm 0.00 in0.0 mm
12:20 AM 22.1°F-5.5°C 5.8°F-14.6°C 49% 1.2 mph N1.9 kmh N 2.3 mph3.7 kmh 30.35 in1027.8 mb - 0.00 in0.0 mm 0.00 in0.0 mm
12:15 AM 22.3°F-5.4°C 6.0°F-14.4°C 49% 2.3 mph NNW3.7 kmh NNW 3.5 mph5.6 kmh 30.35 in1027.8 mb - 0.00 in0.0 mm 0.00 in0.0 mm
12:10 AM 22.5°F-5.3°C 6.2°F-14.3°C 49% 2.3 mph N3.7 kmh N 3.5 mph5.6 kmh 30.35 in1027.8 mb - 0.00 in0.0 mm 0.00 in0.0 mm
12:00 AM 22.7°F-5.2°C 6.4°F-14.2°C 49% 2.3 mph NNE3.7 kmh NNE 3.5 mph5.6 kmh 30.35 in1027.8 mb - 0.00 in0.0 mm 0.00 in0.0 mm